Flight Track Log - Related Links

Times and Time Zones

All times are in EDT time to prevent confusion due to time zone crossing. See the UAL1177 flight status page for this flight to view local times or setup timezone preferences in your user account.

Time Position Orientation Groundspeed Altitude Reporting Facility
EDT Latitude Longitude Course Direction KTS MPH feet Rate Location/Type
Mon 04:33:51 PM 26.0750 -80.1344 331° Northwest 147 169 1,000  Level Miami Center
Mon 04:34:58 PM 26.0808 -80.0628 85° East 176 203 2,900 2,173 Climbing Miami Center
Mon 04:35:58 PM 26.1339 -80.0225 34° Northeast 267 307 5,600 2,753 Climbing Miami Center
Mon 04:36:00 PM 26.1738 -80.5051 293° West  Level FlightAware Approximate
Mon 04:36:23 PM 26.1606 -80.0419 327° Northwest 293 337 6,800  Level Miami Center
Mon 04:36:58 PM 26.1828 -80.0817 302° West 281 323 8,400 2,653 Climbing Miami Center
Mon 04:37:00 PM 26.2220 -80.6193 336° Northwest  Level FlightAware Approximate
Mon 04:37:58 PM 26.2058 -80.1681 287° West 298 343 11,000  Level Miami Center
Mon 04:38:00 PM 26.3267 -80.6717 336° Northwest  Level FlightAware Approximate
Mon 04:38:58 PM 26.2264 -80.2683 283° West 344 396 11,000  Level Miami Center
Mon 04:39:00 PM 26.4265 -80.7330 331° Northwest  Level FlightAware Approximate
Mon 04:39:58 PM 26.2511 -80.3708 285° West 360 414 11,000  Level Miami Center
Mon 04:40:58 PM 26.2697 -80.4664 282° West 355 409 13,400 2,550 Climbing Miami Center
Mon 04:41:58 PM 26.3067 -80.5811 290° West 355 409 16,100 2,250 Climbing Miami Center
Mon 04:42:58 PM 26.3608 -80.6617 307° West 360 414 17,900 2,050 Climbing Miami Center
Mon 04:43:58 PM 26.4400 -80.7522 314° West 370 426 20,200 1,850 Climbing Miami Center
Mon 04:44:58 PM 26.5344 -80.8111 331° Northwest 377 434 21,600 1,300 Climbing Miami Center
Mon 04:45:58 PM 26.6331 -80.8725 331° Northwest 397 457 22,800 1,300 Climbing Miami Center
Mon 04:46:58 PM 26.7167 -80.9428 323° Northwest 411 473 24,200 1,300 Climbing Miami Center
Mon 04:47:58 PM 26.8144 -81.0275 322° Northwest 430 495 25,400 1,250 Climbing Miami Center
Mon 04:48:58 PM 26.9206 -81.1153 324° Northwest 430 495 26,700 1,200 Climbing Miami Center
Mon 04:49:58 PM 27.0183 -81.1981 323° Northwest 436 502 27,800 1,200 Climbing Miami Center
Mon 04:50:58 PM 27.1222 -81.2811 325° Northwest 441 507 29,100 1,350 Climbing Miami Center
Mon 04:51:58 PM 27.1731 -81.3928 297° West 435 501 30,500 1,250 Climbing Miami Center
Mon 04:52:58 PM 27.1961 -81.5244 281° West 421 484 31,600 750 Climbing Miami Center
Mon 04:53:58 PM 27.2161 -81.6747 279° West 434 499 32,000 200 Climbing Miami Center
Mon 04:54:58 PM 27.2158 -81.8078 270° West 446 513 32,000  Level Miami Center
Mon 04:55:58 PM 27.2008 -81.9425 263° West 440 506 32,000 50 Level Miami Center
Mon 04:56:58 PM 27.1736 -82.0581 255° West 440 506 32,100 600 Climbing Miami Center
Mon 04:57:58 PM 27.1000 -82.1853 237° Southwest 440 506 33,200 950 Climbing Miami Center
Mon 04:58:58 PM 27.0497 -82.3064 245° Southwest 435 501 34,000 850 Climbing Miami Center
Mon 04:59:58 PM 27.1167 -82.4100 306° West 357 411 34,900 200 Climbing Miami Center
Mon 05:00:58 PM 27.2311 -82.4714 335° Northwest 364 419 34,400 -450 Descending Miami Center
Mon 05:01:58 PM 27.3294 -82.5206 336° Northwest 398 458 34,000 -200 Descending Miami Center
Mon 05:02:58 PM 27.4436 -82.5869 333° Northwest 420 483 34,000  Level Miami Center
Mon 05:04:44 PM 27.6219 -82.6889 333° Northwest 416 479 34,000  Level Jacksonville Center
Mon 05:05:44 PM 27.7306 -82.7494 334° Northwest 421 484 34,000  Level Jacksonville Center
Mon 05:06:43 PM 27.8389 -82.8081 334° Northwest 431 496 34,000  Level Jacksonville Center
Mon 05:07:44 PM 27.9392 -82.8808 327° Northwest 431 496 34,000  Level Jacksonville Center
Mon 05:08:43 PM 28.0206 -82.9794 313° West 426 490 34,000  Level Jacksonville Center
Mon 05:09:44 PM 28.1039 -83.0783 314° West 426 490 34,000  Level Jacksonville Center
Mon 05:10:44 PM 28.1808 -83.1775 311° West 426 490 34,000  Level Jacksonville Center
Mon 05:11:43 PM 28.2619 -83.2792 312° West 426 490 34,000  Level Jacksonville Center
Mon 05:12:43 PM 28.3369 -83.3783 311° West 426 490 34,000  Level Jacksonville Center
Mon 05:13:44 PM 28.4219 -83.4828 313° West 412 474 34,000  Level Jacksonville Center
Mon 05:14:44 PM 28.4986 -83.5822 311° West 412 474 34,000  Level Jacksonville Center
Mon 05:15:43 PM 28.5775 -83.6822 312° West 412 474 34,000  Level Jacksonville Center
Mon 05:16:44 PM 28.6519 -83.7797 311° West 412 474 34,000  Level Jacksonville Center
Mon 05:17:43 PM 28.7306 -83.8800 312° West 412 474 34,000  Level Jacksonville Center
Mon 05:18:43 PM 28.8069 -83.9800 311° West 412 474 34,000  Level Jacksonville Center
Mon 05:19:43 PM 28.8833 -84.0783 312° West 412 474 34,000  Level Jacksonville Center
Mon 05:20:43 PM 28.9636 -84.1742 314° West 412 474 34,000  Level Jacksonville Center
Mon 05:21:43 PM 29.0483 -84.2653 317° Northwest 412 474 34,000  Level Jacksonville Center
Mon 05:22:44 PM 29.1331 -84.3547 317° Northwest 412 474 34,000  Level Jacksonville Center
Mon 05:23:44 PM 29.2175 -84.4486 316° Northwest 412 474 34,000  Level Jacksonville Center
Mon 05:24:43 PM 29.3039 -84.5381 318° Northwest 422 486 34,000  Level Jacksonville Center
Mon 05:25:44 PM 29.3903 -84.6300 317° Northwest 422 486 34,000  Level Jacksonville Center
Mon 05:26:43 PM 29.4747 -84.7247 316° Northwest 422 486 34,000  Level Jacksonville Center
Mon 05:27:44 PM 29.5589 -84.8169 316° Northwest 422 486 34,000  Level Jacksonville Center
Mon 05:28:44 PM 29.6453 -84.9069 318° Northwest 422 486 34,000  Level Jacksonville Center
Mon 05:29:44 PM 29.7272 -85.0019 315° West 422 486 34,000  Level Jacksonville Center
Mon 05:30:44 PM 29.8153 -85.0925 318° Northwest 422 486 34,000  Level Jacksonville Center
Mon 05:31:43 PM 29.9014 -85.1831 318° Northwest 422 486 34,000  Level Jacksonville Center
Mon 05:32:44 PM 29.9853 -85.2786 315° West 422 486 34,000  Level Jacksonville Center
Mon 05:33:43 PM 30.0714 -85.3694 318° Northwest 422 486 34,000  Level Jacksonville Center
Mon 05:34:44 PM 30.1528 -85.4653 314° West 417 480 34,000  Level Jacksonville Center
Mon 05:35:44 PM 30.2364 -85.5636 315° West 424 488 34,000  Level Jacksonville Center
Mon 05:36:43 PM 30.3161 -85.6428 319° Northwest 418 481 34,000  Level Jacksonville Center
Mon 05:37:43 PM 30.3847 -85.7556 305° West 421 484 34,000  Level Jacksonville Center
Mon 05:38:44 PM 30.4489 -85.8636 305° West 416 479 34,000  Level Jacksonville Center
Mon 05:39:43 PM 30.5175 -85.9742 306° West 416 479 34,000  Level Jacksonville Center
Mon 05:40:44 PM 30.5836 -86.0850 305° West 421 484 34,000 298 Level Jacksonville Center
Mon 05:41:44 PM 30.6517 -86.1983 305° West 427 491 34,600 850 Climbing Jacksonville Center
Mon 05:42:44 PM 30.7197 -86.3094 305° West 432 497 35,700 706 Climbing Jacksonville Center
Mon 05:43:43 PM 30.7875 -86.4253 304° West 432 497 36,000 150 Climbing Jacksonville Center
Mon 05:44:44 PM 30.8553 -86.5367 305° West 432 497 36,000  Level Jacksonville Center
Mon 05:45:43 PM 30.9211 -86.6458 305° West 432 497 36,000  Level Jacksonville Center
Mon 05:47:20 PM 31.0456 -86.8186 310° West 431 496 36,000  Level Atlanta Center
Mon 05:48:20 PM 31.1269 -86.9131 315° West 426 490 36,000  Level Atlanta Center
Mon 05:49:20 PM 31.2081 -87.0103 314° West 420 483 36,000  Level Atlanta Center
Mon 05:50:20 PM 31.2933 -87.1078 316° Northwest 415 478 36,000  Level Atlanta Center
Mon 05:51:20 PM 31.3764 -87.2078 314° West 415 478 36,000  Level Atlanta Center
Mon 05:52:20 PM 31.4550 -87.3056 313° West 415 478 36,000  Level Atlanta Center
Mon 05:53:20 PM 31.5208 -87.4200 304° West 415 478 36,000  Level Atlanta Center
Mon 05:54:20 PM 31.5844 -87.5344 303° West 420 483 36,000  Level Atlanta Center
Mon 05:55:20 PM 31.6500 -87.6492 304° West 425 489 36,000  Level Atlanta Center
Mon 05:56:20 PM 31.7156 -87.7642 304° West 425 489 36,000  Level Atlanta Center
Mon 05:57:56 PM 31.8197 -87.9492 304° West 426 490 36,000  Level Memphis Center
Mon 05:58:56 PM 31.8847 -88.0650 303° West 426 490 36,000  Level Memphis Center
Mon 05:59:56 PM 31.9514 -88.1808 304° West 426 490 36,000  Level Memphis Center
Mon 06:00:56 PM 32.0139 -88.2919 304° West 426 490 36,000  Level Memphis Center
Mon 06:01:56 PM 32.0889 -88.4178 305° West 426 490 36,000  Level Memphis Center
Mon 06:02:56 PM 32.1492 -88.5342 301° West 426 490 36,000  Level Memphis Center
Mon 06:03:56 PM 32.2156 -88.6483 305° West 426 490 36,000  Level Memphis Center
Mon 06:04:56 PM 32.2797 -88.7675 303° West 426 490 36,000  Level Memphis Center
Mon 06:05:56 PM 32.3458 -88.8844 304° West 426 490 36,000  Level Memphis Center
Mon 06:06:56 PM 32.4097 -89.0014 303° West 426 490 36,000  Level Memphis Center
Mon 06:07:56 PM 32.4758 -89.1211 303° West 426 490 36,000  Level Memphis Center
Mon 06:08:56 PM 32.5394 -89.2408 302° West 426 490 36,000  Level Memphis Center
Mon 06:09:56 PM 32.6053 -89.3586 304° West 426 490 36,000  Level Memphis Center
Mon 06:10:56 PM 32.6689 -89.4786 302° West 426 490 36,000  Level Memphis Center
Mon 06:11:56 PM 32.7322 -89.5942 303° West 426 490 36,000  Level Memphis Center
Mon 06:12:56 PM 32.7956 -89.7122 303° West 426 490 36,000  Level Memphis Center
Mon 06:13:56 PM 32.8544 -89.8206 303° West 426 490 36,000  Level Memphis Center
Mon 06:14:56 PM 32.9175 -89.9392 302° West 426 490 36,000  Level Memphis Center
Mon 06:15:56 PM 32.9847 -90.0650 303° West 441 507 36,000  Level Memphis Center
Mon 06:16:56 PM 33.0475 -90.1814 303° West 435 501 36,000  Level Memphis Center
Mon 06:17:56 PM 33.1186 -90.3100 303° West 430 495 36,000  Level Memphis Center
Mon 06:18:56 PM 33.1792 -90.4292 301° West 430 495 36,000  Level Memphis Center
Mon 06:19:56 PM 33.2439 -90.5511 302° West 430 495 36,000  Level Memphis Center
Mon 06:20:56 PM 33.3061 -90.6706 302° West 430 495 36,000  Level Memphis Center
Mon 06:21:56 PM 33.3706 -90.7875 303° West 430 495 36,000  Level Memphis Center
Mon 06:22:56 PM 33.4328 -90.9047 302° West 425 489 36,000  Level Memphis Center
Mon 06:23:56 PM 33.4947 -91.0247 302° West 425 489 36,000  Level Memphis Center
Mon 06:24:56 PM 33.5547 -91.1400 302° West 425 489 36,000  Level Memphis Center
Mon 06:25:56 PM 33.6144 -91.2603 301° West 425 489 36,000  Level Memphis Center
Mon 06:26:56 PM 33.6739 -91.3781 301° West 420 483 36,000  Level Memphis Center
Mon 06:27:56 PM 33.7378 -91.4939 304° West 420 483 36,000  Level Memphis Center
Mon 06:28:56 PM 33.7992 -91.6144 302° West 420 483 36,000  Level Memphis Center
Mon 06:29:56 PM 33.8586 -91.7206 304° West 420 483 36,000  Level Memphis Center
Mon 06:30:56 PM 33.9197 -91.8392 302° West 425 489 36,000  Level Memphis Center
Mon 06:31:56 PM 33.9789 -91.9603 301° West 425 489 36,000  Level Memphis Center
Mon 06:32:56 PM 34.0378 -92.0792 301° West 425 489 36,000  Level Memphis Center
Mon 06:33:56 PM 34.1047 -92.2086 302° West 415 478 36,000  Level Memphis Center
Mon 06:34:56 PM 34.1636 -92.3253 301° West 410 472 36,000  Level Memphis Center
Mon 06:35:56 PM 34.2242 -92.4472 301° West 410 472 36,000  Level Memphis Center
Mon 06:36:56 PM 34.2847 -92.5667 302° West 410 472 36,000  Level Memphis Center
Mon 06:37:56 PM 34.3453 -92.6842 302° West 410 472 36,000  Level Memphis Center
Mon 06:38:56 PM 34.4033 -92.8039 300° West 410 472 36,000  Level Memphis Center
Mon 06:39:56 PM 34.4614 -92.9239 300° West 410 472 36,000  Level Memphis Center
Mon 06:40:56 PM 34.5194 -93.0417 301° West 410 472 36,000  Level Memphis Center
Mon 06:41:56 PM 34.5817 -93.1622 302° West 410 472 36,000  Level Memphis Center
Mon 06:42:56 PM 34.6394 -93.2803 301° West 410 472 36,000  Level Memphis Center
Mon 06:43:56 PM 34.6950 -93.3983 300° West 410 472 36,000  Level Memphis Center
Mon 06:44:56 PM 34.7525 -93.5167 301° West 410 472 36,000  Level Memphis Center
Mon 06:45:56 PM 34.7658 -93.6511 277° West 396 456 36,000  Level Memphis Center
Mon 06:46:56 PM 34.7725 -93.7828 274° West 391 450 36,000  Level Memphis Center
Mon 06:47:56 PM 34.7836 -93.9147 276° West 396 456 36,000  Level Memphis Center
Mon 06:48:56 PM 34.7900 -94.0517 273° West 396 456 36,000  Level Memphis Center
Mon 06:49:56 PM 34.7964 -94.1808 273° West 396 456 36,000  Level Memphis Center
Mon 06:50:56 PM 34.7986 -94.3125 271° West 396 456 36,000  Level Memphis Center
Mon 06:51:56 PM 34.8031 -94.4392 272° West 407 468 36,000  Level Memphis Center
Mon 06:53:09 PM 34.8114 -94.5936 274° West 401 461 36,000  Level Fort Worth Center
Mon 06:54:09 PM 34.8186 -94.7250 274° West 396 456 36,000  Level Fort Worth Center
Mon 06:55:09 PM 34.8214 -94.8664 271° West 403 464 36,000  Level Fort Worth Center
Mon 06:56:09 PM 34.8261 -95.0031 272° West 403 464 36,000  Level Fort Worth Center
Mon 06:57:09 PM 34.8308 -95.1369 272° West 404 465 36,000  Level Fort Worth Center
Mon 06:58:09 PM 34.8356 -95.2886 272° West 404 465 36,000  Level Fort Worth Center
Mon 06:59:09 PM 34.8400 -95.4250 272° West 409 471 36,000  Level Fort Worth Center
Mon 07:00:09 PM 34.8419 -95.5592 271° West 404 465 36,000  Level Fort Worth Center
Mon 07:01:09 PM 34.8436 -95.6756 271° West 396 456 36,000  Level Fort Worth Center
Mon 07:02:09 PM 34.8642 -95.8067 281° West 396 456 36,000  Level Fort Worth Center
Mon 07:03:09 PM 34.9322 -95.9142 308° West 389 448 36,000  Level Fort Worth Center
Mon 07:04:09 PM 35.0044 -96.0219 309° West 390 449 36,000  Level Fort Worth Center
Mon 07:05:09 PM 35.0786 -96.1297 310° West 403 464 36,000  Level Fort Worth Center
Mon 07:06:09 PM 35.1506 -96.2378 309° West 409 471 36,000  Level Fort Worth Center
Mon 07:07:09 PM 35.2203 -96.3436 309° West 414 476 36,000  Level Fort Worth Center
Mon 07:08:41 PM 35.3356 -96.5169 309° West 409 471 36,000  Level Kansas City Center
Mon 07:09:42 PM 35.4064 -96.6272 308° West 413 475 36,000  Level Kansas City Center
Mon 07:10:44 PM 35.4783 -96.7378 309° West 415 478 36,000  Level Kansas City Center
Mon 07:11:45 PM 35.5519 -96.8514 309° West 423 487 36,000  Level Kansas City Center
Mon 07:12:46 PM 35.6264 -96.9653 309° West 428 493 36,000  Level Kansas City Center
Mon 07:13:48 PM 35.7156 -97.1031 309° West 433 498 36,000  Level Kansas City Center
Mon 07:14:49 PM 35.7881 -97.2156 308° West 428 493 36,000  Level Kansas City Center
Mon 07:15:50 PM 35.8597 -97.3278 308° West 423 487 36,000  Level Kansas City Center
Mon 07:16:51 PM 35.9314 -97.4422 308° West 423 487 36,000  Level Kansas City Center
Mon 07:17:53 PM 36.0050 -97.5569 308° West 427 491 36,000  Level Kansas City Center
Mon 07:18:54 PM 36.0781 -97.6733 308° West 429 494 36,000  Level Kansas City Center
Mon 07:19:55 PM 36.1497 -97.7889 308° West 427 491 36,000  Level Kansas City Center
Mon 07:20:56 PM 36.2194 -97.8994 308° West 415 478 36,000  Level Kansas City Center
Mon 07:21:57 PM 36.2906 -98.0150 307° West 409 471 36,000  Level Kansas City Center
Mon 07:22:59 PM 36.3606 -98.1253 308° West 408 470 36,000  Level Kansas City Center
Mon 07:24:00 PM 36.4439 -98.2586 308° West 407 468 36,000  Level Kansas City Center
Mon 07:25:02 PM 36.5117 -98.3697 307° West 406 467 36,000  Level Kansas City Center
Mon 07:26:03 PM 36.5803 -98.4808 308° West 406 467 36,000  Level Kansas City Center
Mon 07:27:04 PM 36.6500 -98.5944 307° West 409 471 36,000  Level Kansas City Center
Mon 07:28:05 PM 36.7194 -98.7072 308° West 412 474 36,000  Level Kansas City Center
Mon 07:29:07 PM 36.7892 -98.8217 307° West 413 475 36,000  Level Kansas City Center
Mon 07:30:08 PM 36.8594 -98.9353 308° West 413 475 36,000  Level Kansas City Center
Mon 07:31:09 PM 36.9289 -99.0531 306° West 419 482 36,000  Level Kansas City Center
Mon 07:32:10 PM 36.9983 -99.1664 308° West 414 476 36,000  Level Kansas City Center
Mon 07:33:12 PM 37.0819 -99.3056 307° West 416 479 36,000  Level Kansas City Center
Mon 07:34:13 PM 37.1517 -99.4225 307° West 418 481 36,000  Level Kansas City Center
Mon 07:35:14 PM 37.2239 -99.5436 307° West 417 480 36,000  Level Kansas City Center
Mon 07:36:15 PM 37.2872 -99.6508 307° West 406 467 36,000  Level Kansas City Center
Mon 07:37:17 PM 37.3533 -99.7592 308° West 406 467 36,000  Level Kansas City Center
Mon 07:38:18 PM 37.4294 -99.8878 307° West 410 472 36,000  Level Kansas City Center
Mon 07:39:19 PM 37.4953 -99.9989 307° West 413 475 36,000  Level Kansas City Center
Mon 07:40:20 PM 37.5711 -100.1286 306° West 414 476 36,000  Level Kansas City Center
Mon 07:41:21 PM 37.6350 -100.2372 307° West 406 467 36,000  Level Kansas City Center
Mon 07:42:23 PM 37.7000 -100.3486 306° West 411 473 36,000  Level Kansas City Center
Mon 07:43:24 PM 37.7778 -100.4794 307° West 418 481 36,000  Level Kansas City Center
Mon 07:44:25 PM 37.8414 -100.5900 306° West 414 476 36,000  Level Kansas City Center
Mon 07:45:26 PM 37.9158 -100.7192 306° West 411 473 36,000  Level Kansas City Center
Mon 07:46:27 PM 37.9644 -100.8394 297° West 406 467 36,000  Level Kansas City Center
Mon 07:47:28 PM 38.0172 -100.9811 295° West 403 464 36,000  Level Kansas City Center
Mon 07:48:29 PM 38.0650 -101.1047 296° West 408 470 36,000  Level Kansas City Center
Mon 07:49:31 PM 38.1117 -101.2283 296° West 408 470 36,000  Level Kansas City Center
Mon 07:50:03 PM 38.1428 -101.3106 296° West 408 470 36,000  Level Denver Center
Mon 07:51:04 PM 38.1900 -101.4356 296° West 410 472 36,000  Level Denver Center
Mon 07:52:06 PM 38.2183 -101.5881 283° West 414 476 36,000  Level Denver Center
Mon 07:53:08 PM 38.1983 -101.7228 259° West 406 467 36,000  Level Denver Center
Mon 07:54:10 PM 38.1758 -101.8817 260° West 409 471 36,000  Level Denver Center
Mon 07:55:12 PM 38.1575 -102.0164 260° West 409 471 36,000  Level Denver Center
Mon 07:56:14 PM 38.1386 -102.1517 260° West 407 468 36,000  Level Denver Center
Mon 07:57:16 PM 38.1161 -102.3103 260° West 409 471 36,000  Level Denver Center
Mon 07:58:17 PM 38.1733 -102.4269 302° West 424 488 36,000  Level Denver Center
Mon 07:59:19 PM 38.2614 -102.5522 312° West 425 489 36,000 -339 Level Denver Center
Mon 08:00:21 PM 38.3303 -102.6617 309° West 416 479 35,300 -823 Descending Denver Center
Mon 08:01:23 PM 38.4125 -102.7925 309° West 424 488 34,300 -919 Descending Denver Center
Mon 08:02:25 PM 38.4872 -102.9103 309° West 443 510 33,400 -919 Descending Denver Center
Mon 08:03:27 PM 38.5661 -103.0333 309° West 447 514 32,400 -683 Descending Denver Center
Mon 08:04:28 PM 38.6544 -103.1742 309° West 454 522 32,000 -195 Descending Denver Center
Mon 08:05:30 PM 38.7294 -103.2944 309° West 454 522 32,000 -774 Level Denver Center
Mon 08:06:32 PM 38.8161 -103.4328 309° West 448 516 30,400 -1,839 Descending Denver Center
Mon 08:07:34 PM 38.8861 -103.5456 309° West 429 494 28,200 -2,244 Descending Denver Center
Mon 08:08:35 PM 38.9658 -103.6731 309° West 413 475 25,800 -2,146 Descending Denver Center
Mon 08:09:37 PM 39.0303 -103.7792 308° West 399 459 23,800 -2,081 Descending Denver Center
Mon 08:10:39 PM 39.1033 -103.8956 309° West 377 434 21,500 -2,049 Descending Denver Center
Mon 08:11:40 PM 39.1667 -103.9917 310° West 371 427 19,600 -1,756 Descending Denver Center
Mon 08:12:42 PM 39.2292 -104.0817 312° West 365 420 17,900 -1,839 Descending Denver Center
Mon 08:13:44 PM 39.3194 -104.1536 328° Northwest 348 400 15,800 -2,000 Descending Denver Center
Mon 08:14:45 PM 39.3972 -104.2111 330° Northwest 324 373 13,800 -1,366 Descending Denver Center
Mon 08:15:47 PM 39.4839 -104.2681 333° Northwest 325 374 13,000 -1,161 Descending Denver Center
Mon 08:16:49 PM 39.5589 -104.3214 331° Northwest 311 358 11,400 -1,024 Descending Denver Center
Mon 08:17:50 PM 39.6197 -104.3928 318° Northwest 296 341 10,900 -537 Descending Denver Center
Mon 08:18:52 PM 39.6150 -104.4933 267° West 258 297 10,300 -1,016 Descending Denver Center
Mon 08:19:54 PM 39.5497 -104.5214 198° South 262 302 8,800 -1,122 Descending Denver Center
Mon 08:20:55 PM 39.4944 -104.5583 207° Southwest 253 291 8,000 -390 Descending Denver Center
Mon 08:21:57 PM 39.5231 -104.6300 297° West 233 268 8,000  Level Denver Center
Mon 08:22:58 PM 39.5806 -104.6453 348° North 215 247 8,000  Level Denver Center
Mon 08:24:00 PM 39.6386 -104.6439 North 208 239 8,000  Level Denver Center

Login

Don't have an account? Register now (free) for customized features, flight alerts, and more!